sensor_id;sensor_type;location;lat;lon;timestamp;P1;durP1;ratioP1;P2;durP2;ratioP2
45764;SDS011;31474;45.332;10.230;2023-05-16T00:02:03;10.27;;;8.65;;
45764;SDS011;31474;45.332;10.230;2023-05-16T00:04:29;9.57;;;8.57;;
45764;SDS011;31474;45.332;10.230;2023-05-16T00:06:56;11.98;;;9.48;;
45764;SDS011;31474;45.332;10.230;2023-05-16T00:09:22;9.40;;;8.48;;
45764;SDS011;31474;45.332;10.230;2023-05-16T00:11:48;8.60;;;7.70;;
45764;SDS011;31474;45.332;10.230;2023-05-16T00:14:15;11.25;;;8.07;;
45764;SDS011;31474;45.332;10.230;2023-05-16T00:16:41;8.77;;;7.82;;
45764;SDS011;31474;45.332;10.230;2023-05-16T00:19:06;9.07;;;8.18;;
45764;SDS011;31474;45.332;10.230;2023-05-16T00:21:32;8.77;;;7.55;;
45764;SDS011;31474;45.332;10.230;2023-05-16T00:23:58;12.38;;;7.55;;
45764;SDS011;31474;45.332;10.230;2023-05-16T00:26:24;7.97;;;7.22;;
45764;SDS011;31474;45.332;10.230;2023-05-16T00:28:50;9.80;;;8.25;;
45764;SDS011;31474;45.332;10.230;2023-05-16T00:31:16;8.43;;;7.63;;
45764;SDS011;31474;45.332;10.230;2023-05-16T00:33:42;8.73;;;7.55;;
45764;SDS011;31474;45.332;10.230;2023-05-16T00:36:07;10.75;;;8.15;;
45764;SDS011;31474;45.332;10.230;2023-05-16T00:38:33;10.65;;;7.60;;
45764;SDS011;31474;45.332;10.230;2023-05-16T00:40:59;9.80;;;7.82;;
45764;SDS011;31474;45.332;10.230;2023-05-16T00:43:24;8.95;;;7.22;;
45764;SDS011;31474;45.332;10.230;2023-05-16T00:45:50;9.65;;;7.55;;
45764;SDS011;31474;45.332;10.230;2023-05-16T00:48:16;9.90;;;7.68;;
45764;SDS011;31474;45.332;10.230;2023-05-16T00:50:42;10.48;;;7.97;;
45764;SDS011;31474;45.332;10.230;2023-05-16T00:53:08;8.80;;;7.20;;
45764;SDS011;31474;45.332;10.230;2023-05-16T00:55:35;9.73;;;7.65;;
45764;SDS011;31474;45.332;10.230;2023-05-16T00:58:02;8.88;;;7.45;;
45764;SDS011;31474;45.332;10.230;2023-05-16T01:00:29;8.73;;;6.63;;
45764;SDS011;31474;45.332;10.230;2023-05-16T01:02:55;10.55;;;7.55;;
45764;SDS011;31474;45.332;10.230;2023-05-16T01:05:21;7.88;;;7.13;;
45764;SDS011;31474;45.332;10.230;2023-05-16T01:07:47;8.13;;;7.32;;
45764;SDS011;31474;45.332;10.230;2023-05-16T01:10:13;8.93;;;7.18;;
45764;SDS011;31474;45.332;10.230;2023-05-16T01:15:43;11.40;;;6.10;;
45764;SDS011;31474;45.332;10.230;2023-05-16T01:18:36;7.88;;;6.95;;
45764;SDS011;31474;45.332;10.230;2023-05-16T01:21:11;12.45;;;6.85;;
45764;SDS011;31474;45.332;10.230;2023-05-16T01:26:51;8.93;;;6.38;;
45764;SDS011;31474;45.332;10.230;2023-05-16T01:29:18;8.07;;;6.32;;
45764;SDS011;31474;45.332;10.230;2023-05-16T01:31:43;7.18;;;6.20;;
45764;SDS011;31474;45.332;10.230;2023-05-16T01:34:09;8.05;;;6.00;;
45764;SDS011;31474;45.332;10.230;2023-05-16T01:36:40;11.88;;;6.03;;
45764;SDS011;31474;45.332;10.230;2023-05-16T01:41:48;7.18;;;4.57;;
45764;SDS011;31474;45.332;10.230;2023-05-16T01:44:42;6.18;;;5.57;;
45764;SDS011;31474;45.332;10.230;2023-05-16T01:47:21;8.45;;;5.05;;
45764;SDS011;31474;45.332;10.230;2023-05-16T01:53:01;7.85;;;5.30;;
45764;SDS011;31474;45.332;10.230;2023-05-16T01:55:38;8.50;;;5.32;;
45764;SDS011;31474;45.332;10.230;2023-05-16T01:58:11;5.40;;;4.88;;
45764;SDS011;31474;45.332;10.230;2023-05-16T02:00:39;5.75;;;4.88;;
45764;SDS011;31474;45.332;10.230;2023-05-16T02:03:05;7.38;;;5.40;;
45764;SDS011;31474;45.332;10.230;2023-05-16T02:05:31;5.40;;;4.90;;
45764;SDS011;31474;45.332;10.230;2023-05-16T02:07:58;5.65;;;4.25;;
45764;SDS011;31474;45.332;10.230;2023-05-16T02:10:23;11.70;;;4.68;;
45764;SDS011;31474;45.332;10.230;2023-05-16T02:12:50;7.47;;;4.72;;
45764;SDS011;31474;45.332;10.230;2023-05-16T02:15:15;10.70;;;5.30;;
45764;SDS011;31474;45.332;10.230;2023-05-16T02:17:41;8.23;;;4.80;;
45764;SDS011;31474;45.332;10.230;2023-05-16T02:20:07;5.65;;;4.35;;
45764;SDS011;31474;45.332;10.230;2023-05-16T02:22:34;8.45;;;4.75;;
45764;SDS011;31474;45.332;10.230;2023-05-16T02:25:01;7.07;;;5.15;;
45764;SDS011;31474;45.332;10.230;2023-05-16T02:27:28;5.90;;;5.30;;
45764;SDS011;31474;45.332;10.230;2023-05-16T02:29:53;6.70;;;5.05;;
45764;SDS011;31474;45.332;10.230;2023-05-16T02:32:19;5.20;;;4.70;;
45764;SDS011;31474;45.332;10.230;2023-05-16T02:34:45;7.68;;;5.20;;
45764;SDS011;31474;45.332;10.230;2023-05-16T02:37:11;7.82;;;5.25;;
45764;SDS011;31474;45.332;10.230;2023-05-16T02:39:36;5.22;;;4.72;;
45764;SDS011;31474;45.332;10.230;2023-05-16T02:42:03;7.63;;;5.35;;
45764;SDS011;31474;45.332;10.230;2023-05-16T02:44:29;5.75;;;5.25;;
45764;SDS011;31474;45.332;10.230;2023-05-16T02:46:54;6.38;;;5.05;;
45764;SDS011;31474;45.332;10.230;2023-05-16T02:49:20;5.80;;;5.20;;
45764;SDS011;31474;45.332;10.230;2023-05-16T02:51:46;5.30;;;4.80;;
45764;SDS011;31474;45.332;10.230;2023-05-16T02:54:12;8.65;;;4.68;;
45764;SDS011;31474;45.332;10.230;2023-05-16T02:56:37;8.57;;;5.75;;
45764;SDS011;31474;45.332;10.230;2023-05-16T02:59:03;9.38;;;5.53;;
45764;SDS011;31474;45.332;10.230;2023-05-16T03:01:29;7.43;;;4.88;;
45764;SDS011;31474;45.332;10.230;2023-05-16T03:03:55;5.75;;;5.07;;
45764;SDS011;31474;45.332;10.230;2023-05-16T03:06:21;7.07;;;6.18;;
45764;SDS011;31474;45.332;10.230;2023-05-16T03:08:46;9.45;;;5.80;;
45764;SDS011;31474;45.332;10.230;2023-05-16T03:11:12;7.05;;;5.20;;
45764;SDS011;31474;45.332;10.230;2023-05-16T03:13:40;5.68;;;5.13;;
45764;SDS011;31474;45.332;10.230;2023-05-16T03:16:06;8.60;;;4.90;;
45764;SDS011;31474;45.332;10.230;2023-05-16T03:18:32;6.95;;;5.30;;
45764;SDS011;31474;45.332;10.230;2023-05-16T03:20:57;7.03;;;4.80;;
45764;SDS011;31474;45.332;10.230;2023-05-16T03:23:23;8.90;;;4.95;;
45764;SDS011;31474;45.332;10.230;2023-05-16T03:25:49;6.45;;;5.00;;
45764;SDS011;31474;45.332;10.230;2023-05-16T03:28:16;9.68;;;4.88;;
45764;SDS011;31474;45.332;10.230;2023-05-16T03:30:44;5.07;;;4.57;;
45764;SDS011;31474;45.332;10.230;2023-05-16T03:33:10;5.80;;;4.93;;
45764;SDS011;31474;45.332;10.230;2023-05-16T03:35:36;7.28;;;4.53;;
45764;SDS011;31474;45.332;10.230;2023-05-16T03:38:02;5.78;;;5.13;;
45764;SDS011;31474;45.332;10.230;2023-05-16T03:40:28;5.45;;;4.75;;
45764;SDS011;31474;45.332;10.230;2023-05-16T03:42:53;7.28;;;4.50;;
45764;SDS011;31474;45.332;10.230;2023-05-16T03:45:19;5.50;;;4.57;;
45764;SDS011;31474;45.332;10.230;2023-05-16T03:47:45;6.95;;;4.85;;
45764;SDS011;31474;45.332;10.230;2023-05-16T03:50:12;5.30;;;4.80;;
45764;SDS011;31474;45.332;10.230;2023-05-16T03:52:38;6.88;;;4.60;;
45764;SDS011;31474;45.332;10.230;2023-05-16T03:55:03;5.78;;;4.45;;
45764;SDS011;31474;45.332;10.230;2023-05-16T03:57:30;5.05;;;4.55;;
45764;SDS011;31474;45.332;10.230;2023-05-16T03:59:56;4.72;;;4.32;;
45764;SDS011;31474;45.332;10.230;2023-05-16T04:02:22;6.63;;;4.55;;
45764;SDS011;31474;45.332;10.230;2023-05-16T04:04:48;5.35;;;4.55;;
45764;SDS011;31474;45.332;10.230;2023-05-16T04:07:13;8.18;;;4.65;;
45764;SDS011;31474;45.332;10.230;2023-05-16T04:09:39;5.45;;;4.80;;
45764;SDS011;31474;45.332;10.230;2023-05-16T04:12:05;7.15;;;4.82;;
45764;SDS011;31474;45.332;10.230;2023-05-16T04:14:31;4.65;;;4.22;;
45764;SDS011;31474;45.332;10.230;2023-05-16T04:16:58;5.47;;;4.80;;
45764;SDS011;31474;45.332;10.230;2023-05-16T04:19:24;5.03;;;4.18;;
45764;SDS011;31474;45.332;10.230;2023-05-16T04:21:50;6.22;;;4.32;;
45764;SDS011;31474;45.332;10.230;2023-05-16T04:24:16;5.25;;;4.75;;
45764;SDS011;31474;45.332;10.230;2023-05-16T04:26:42;10.57;;;4.78;;
45764;SDS011;31474;45.332;10.230;2023-05-16T04:29:08;5.88;;;4.93;;
45764;SDS011;31474;45.332;10.230;2023-05-16T04:31:34;4.88;;;4.30;;
45764;SDS011;31474;45.332;10.230;2023-05-16T04:34:01;6.05;;;5.25;;
45764;SDS011;31474;45.332;10.230;2023-05-16T04:36:26;8.13;;;4.88;;
45764;SDS011;31474;45.332;10.230;2023-05-16T04:38:54;6.85;;;5.72;;
45764;SDS011;31474;45.332;10.230;2023-05-16T04:41:20;4.63;;;4.22;;
45764;SDS011;31474;45.332;10.230;2023-05-16T04:43:46;5.57;;;4.88;;
45764;SDS011;31474;45.332;10.230;2023-05-16T04:46:12;4.68;;;4.25;;
45764;SDS011;31474;45.332;10.230;2023-05-16T04:48:39;5.65;;;4.30;;
45764;SDS011;31474;45.332;10.230;2023-05-16T04:51:05;4.30;;;3.90;;
45764;SDS011;31474;45.332;10.230;2023-05-16T04:53:31;4.47;;;3.50;;
45764;SDS011;31474;45.332;10.230;2023-05-16T04:55:57;7.63;;;3.58;;
45764;SDS011;31474;45.332;10.230;2023-05-16T04:58:23;4.00;;;3.42;;
45764;SDS011;31474;45.332;10.230;2023-05-16T05:00:50;2.55;;;2.30;;
45764;SDS011;31474;45.332;10.230;2023-05-16T05:03:16;3.60;;;2.78;;
45764;SDS011;31474;45.332;10.230;2023-05-16T05:05:42;3.42;;;2.42;;
45764;SDS011;31474;45.332;10.230;2023-05-16T05:08:07;4.38;;;2.03;;
45764;SDS011;31474;45.332;10.230;2023-05-16T05:10:33;3.25;;;1.85;;
45764;SDS011;31474;45.332;10.230;2023-05-16T05:12:59;2.15;;;1.30;;
45764;SDS011;31474;45.332;10.230;2023-05-16T05:15:25;3.25;;;1.50;;
45764;SDS011;31474;45.332;10.230;2023-05-16T05:17:51;1.65;;;1.20;;
45764;SDS011;31474;45.332;10.230;2023-05-16T05:20:16;2.45;;;1.30;;
45764;SDS011;31474;45.332;10.230;2023-05-16T05:22:42;1.42;;;1.27;;
45764;SDS011;31474;45.332;10.230;2023-05-16T05:25:08;3.40;;;1.48;;
45764;SDS011;31474;45.332;10.230;2023-05-16T05:27:34;2.03;;;1.38;;
45764;SDS011;31474;45.332;10.230;2023-05-16T05:29:59;2.63;;;1.23;;
45764;SDS011;31474;45.332;10.230;2023-05-16T05:32:25;1.30;;;1.10;;
45764;SDS011;31474;45.332;10.230;2023-05-16T05:34:51;3.65;;;1.60;;
45764;SDS011;31474;45.332;10.230;2023-05-16T05:37:17;5.43;;;1.58;;
45764;SDS011;31474;45.332;10.230;2023-05-16T05:39:42;1.88;;;1.27;;
45764;SDS011;31474;45.332;10.230;2023-05-16T05:42:09;1.63;;;1.30;;
45764;SDS011;31474;45.332;10.230;2023-05-16T05:44:36;2.67;;;1.70;;
45764;SDS011;31474;45.332;10.230;2023-05-16T05:47:02;3.42;;;1.80;;
45764;SDS011;31474;45.332;10.230;2023-05-16T05:49:30;5.35;;;1.60;;
45764;SDS011;31474;45.332;10.230;2023-05-16T05:51:57;9.38;;;2.35;;
45764;SDS011;31474;45.332;10.230;2023-05-16T05:54:22;5.03;;;1.70;;
45764;SDS011;31474;45.332;10.230;2023-05-16T05:56:48;2.67;;;1.70;;
45764;SDS011;31474;45.332;10.230;2023-05-16T05:59:14;2.95;;;1.85;;
45764;SDS011;31474;45.332;10.230;2023-05-16T06:01:40;3.70;;;1.77;;
45764;SDS011;31474;45.332;10.230;2023-05-16T06:04:07;3.60;;;2.00;;
45764;SDS011;31474;45.332;10.230;2023-05-16T06:06:33;4.82;;;1.90;;
45764;SDS011;31474;45.332;10.230;2023-05-16T06:08:58;3.85;;;1.52;;
45764;SDS011;31474;45.332;10.230;2023-05-16T06:11:24;5.63;;;1.73;;
45764;SDS011;31474;45.332;10.230;2023-05-16T06:13:50;1.80;;;1.52;;
45764;SDS011;31474;45.332;10.230;2023-05-16T06:16:16;4.28;;;1.80;;
45764;SDS011;31474;45.332;10.230;2023-05-16T06:18:42;2.75;;;1.90;;
45764;SDS011;31474;45.332;10.230;2023-05-16T06:21:08;2.47;;;1.70;;
45764;SDS011;31474;45.332;10.230;2023-05-16T06:23:33;4.80;;;2.60;;
45764;SDS011;31474;45.332;10.230;2023-05-16T06:26:00;3.58;;;2.28;;
45764;SDS011;31474;45.332;10.230;2023-05-16T06:28:27;2.53;;;1.80;;
45764;SDS011;31474;45.332;10.230;2023-05-16T06:30:53;3.33;;;1.60;;
45764;SDS011;31474;45.332;10.230;2023-05-16T06:33:19;5.45;;;1.92;;
45764;SDS011;31474;45.332;10.230;2023-05-16T06:35:45;3.58;;;1.80;;
45764;SDS011;31474;45.332;10.230;2023-05-16T06:38:12;2.38;;;1.70;;
45764;SDS011;31474;45.332;10.230;2023-05-16T06:40:38;3.33;;;2.00;;
45764;SDS011;31474;45.332;10.230;2023-05-16T06:43:03;3.88;;;2.10;;
45764;SDS011;31474;45.332;10.230;2023-05-16T06:45:29;1.63;;;1.45;;
45764;SDS011;31474;45.332;10.230;2023-05-16T06:47:55;2.17;;;1.90;;
45764;SDS011;31474;45.332;10.230;2023-05-16T06:50:21;3.17;;;2.15;;
45764;SDS011;31474;45.332;10.230;2023-05-16T06:52:46;5.93;;;2.03;;
45764;SDS011;31474;45.332;10.230;2023-05-16T06:55:12;4.13;;;2.20;;
45764;SDS011;31474;45.332;10.230;2023-05-16T06:57:38;2.38;;;2.00;;
45764;SDS011;31474;45.332;10.230;2023-05-16T07:00:06;4.28;;;2.17;;
45764;SDS011;31474;45.332;10.230;2023-05-16T07:02:32;2.60;;;2.00;;
45764;SDS011;31474;45.332;10.230;2023-05-16T07:04:58;3.05;;;1.85;;
45764;SDS011;31474;45.332;10.230;2023-05-16T07:07:23;2.63;;;2.42;;
45764;SDS011;31474;45.332;10.230;2023-05-16T07:09:49;2.67;;;2.13;;
45764;SDS011;31474;45.332;10.230;2023-05-16T07:12:15;6.93;;;2.00;;
45764;SDS011;31474;45.332;10.230;2023-05-16T07:14:41;2.55;;;2.05;;
45764;SDS011;31474;45.332;10.230;2023-05-16T07:17:07;3.50;;;1.98;;
45764;SDS011;31474;45.332;10.230;2023-05-16T07:19:33;6.15;;;2.00;;
45764;SDS011;31474;45.332;10.230;2023-05-16T07:21:59;3.63;;;2.47;;
45764;SDS011;31474;45.332;10.230;2023-05-16T07:24:25;4.90;;;1.95;;
45764;SDS011;31474;45.332;10.230;2023-05-16T07:26:50;2.47;;;2.03;;
45764;SDS011;31474;45.332;10.230;2023-05-16T07:29:16;5.15;;;2.65;;
45764;SDS011;31474;45.332;10.230;2023-05-16T07:31:42;5.03;;;2.53;;
45764;SDS011;31474;45.332;10.230;2023-05-16T07:34:08;4.85;;;2.75;;
45764;SDS011;31474;45.332;10.230;2023-05-16T07:36:35;3.10;;;2.42;;
45764;SDS011;31474;45.332;10.230;2023-05-16T07:39:00;3.70;;;2.28;;
45764;SDS011;31474;45.332;10.230;2023-05-16T07:41:27;3.30;;;2.53;;
45764;SDS011;31474;45.332;10.230;2023-05-16T07:43:53;6.30;;;2.63;;
45764;SDS011;31474;45.332;10.230;2023-05-16T07:46:19;3.42;;;2.47;;
45764;SDS011;31474;45.332;10.230;2023-05-16T07:48:45;3.28;;;2.67;;
45764;SDS011;31474;45.332;10.230;2023-05-16T07:51:10;2.95;;;2.63;;
45764;SDS011;31474;45.332;10.230;2023-05-16T07:53:36;2.75;;;2.28;;
45764;SDS011;31474;45.332;10.230;2023-05-16T07:56:02;2.38;;;2.08;;
45764;SDS011;31474;45.332;10.230;2023-05-16T07:58:28;5.03;;;2.35;;
45764;SDS011;31474;45.332;10.230;2023-05-16T08:00:53;2.40;;;1.90;;
45764;SDS011;31474;45.332;10.230;2023-05-16T08:03:19;4.90;;;2.83;;
45764;SDS011;31474;45.332;10.230;2023-05-16T08:05:45;4.50;;;3.17;;
45764;SDS011;31474;45.332;10.230;2023-05-16T08:08:12;3.25;;;2.45;;
45764;SDS011;31474;45.332;10.230;2023-05-16T08:10:38;13.18;;;3.05;;
45764;SDS011;31474;45.332;10.230;2023-05-16T08:13:04;3.60;;;2.75;;
45764;SDS011;31474;45.332;10.230;2023-05-16T08:15:30;3.03;;;2.60;;
45764;SDS011;31474;45.332;10.230;2023-05-16T08:17:58;5.57;;;2.95;;
45764;SDS011;31474;45.332;10.230;2023-05-16T08:20:24;3.15;;;2.83;;
45764;SDS011;31474;45.332;10.230;2023-05-16T08:22:50;2.88;;;2.53;;
45764;SDS011;31474;45.332;10.230;2023-05-16T08:25:16;3.72;;;2.85;;
45764;SDS011;31474;45.332;10.230;2023-05-16T08:27:43;6.60;;;3.10;;
45764;SDS011;31474;45.332;10.230;2023-05-16T08:30:10;5.40;;;2.92;;
45764;SDS011;31474;45.332;10.230;2023-05-16T08:32:36;4.45;;;2.53;;
45764;SDS011;31474;45.332;10.230;2023-05-16T08:35:02;3.65;;;3.20;;
45764;SDS011;31474;45.332;10.230;2023-05-16T08:37:28;4.72;;;3.47;;
45764;SDS011;31474;45.332;10.230;2023-05-16T08:39:54;6.10;;;3.30;;
45764;SDS011;31474;45.332;10.230;2023-05-16T08:42:19;5.32;;;3.17;;
45764;SDS011;31474;45.332;10.230;2023-05-16T08:44:45;6.15;;;3.47;;
45764;SDS011;31474;45.332;10.230;2023-05-16T08:47:12;4.43;;;3.33;;
45764;SDS011;31474;45.332;10.230;2023-05-16T08:49:50;4.85;;;3.58;;
45764;SDS011;31474;45.332;10.230;2023-05-16T08:52:17;5.88;;;4.10;;
45764;SDS011;31474;45.332;10.230;2023-05-16T08:54:45;5.40;;;4.22;;
45764;SDS011;31474;45.332;10.230;2023-05-16T08:57:11;6.22;;;3.63;;
45764;SDS011;31474;45.332;10.230;2023-05-16T08:59:38;4.40;;;3.30;;
45764;SDS011;31474;45.332;10.230;2023-05-16T09:02:05;4.18;;;3.40;;
45764;SDS011;31474;45.332;10.230;2023-05-16T09:04:31;3.97;;;2.80;;
45764;SDS011;31474;45.332;10.230;2023-05-16T09:06:57;8.85;;;4.15;;
45764;SDS011;31474;45.332;10.230;2023-05-16T09:09:23;4.55;;;3.42;;
45764;SDS011;31474;45.332;10.230;2023-05-16T09:11:48;4.78;;;3.55;;
45764;SDS011;31474;45.332;10.230;2023-05-16T09:14:14;6.00;;;3.53;;
45764;SDS011;31474;45.332;10.230;2023-05-16T09:16:40;7.72;;;3.72;;
45764;SDS011;31474;45.332;10.230;2023-05-16T09:19:06;8.73;;;3.67;;
45764;SDS011;31474;45.332;10.230;2023-05-16T09:21:32;4.50;;;3.60;;
45764;SDS011;31474;45.332;10.230;2023-05-16T09:24:05;6.65;;;3.75;;
45764;SDS011;31474;45.332;10.230;2023-05-16T09:26:33;5.00;;;3.80;;
45764;SDS011;31474;45.332;10.230;2023-05-16T09:29:00;5.30;;;4.03;;
45764;SDS011;31474;45.332;10.230;2023-05-16T09:31:27;4.97;;;3.75;;
45764;SDS011;31474;45.332;10.230;2023-05-16T09:34:01;10.00;;;4.43;;
45764;SDS011;31474;45.332;10.230;2023-05-16T09:36:30;4.03;;;3.67;;
45764;SDS011;31474;45.332;10.230;2023-05-16T09:38:56;6.95;;;4.20;;
45764;SDS011;31474;45.332;10.230;2023-05-16T09:41:21;6.47;;;3.80;;
45764;SDS011;31474;45.332;10.230;2023-05-16T09:43:47;4.13;;;3.70;;
45764;SDS011;31474;45.332;10.230;2023-05-16T09:46:13;6.85;;;3.67;;
45764;SDS011;31474;45.332;10.230;2023-05-16T09:48:40;4.20;;;3.70;;
45764;SDS011;31474;45.332;10.230;2023-05-16T09:51:08;5.50;;;4.63;;
45764;SDS011;31474;45.332;10.230;2023-05-16T09:53:37;8.35;;;3.85;;
45764;SDS011;31474;45.332;10.230;2023-05-16T09:56:04;5.60;;;4.38;;
45764;SDS011;31474;45.332;10.230;2023-05-16T09:58:34;5.97;;;4.03;;
45764;SDS011;31474;45.332;10.230;2023-05-16T10:01:02;4.57;;;3.63;;
45764;SDS011;31474;45.332;10.230;2023-05-16T10:03:28;3.50;;;3.20;;
45764;SDS011;31474;45.332;10.230;2023-05-16T10:05:54;5.43;;;3.25;;
45764;SDS011;31474;45.332;10.230;2023-05-16T10:08:24;4.30;;;3.40;;
45764;SDS011;31474;45.332;10.230;2023-05-16T10:10:52;3.83;;;3.15;;
45764;SDS011;31474;45.332;10.230;2023-05-16T10:13:36;3.15;;;2.85;;
45764;SDS011;31474;45.332;10.230;2023-05-16T10:16:09;4.28;;;3.13;;
45764;SDS011;31474;45.332;10.230;2023-05-16T10:18:36;6.82;;;3.38;;
45764;SDS011;31474;45.332;10.230;2023-05-16T10:21:04;5.93;;;3.75;;
45764;SDS011;31474;45.332;10.230;2023-05-16T10:23:32;4.47;;;3.83;;
45764;SDS011;31474;45.332;10.230;2023-05-16T10:25:59;5.07;;;4.57;;
45764;SDS011;31474;45.332;10.230;2023-05-16T10:28:27;5.07;;;4.50;;
45764;SDS011;31474;45.332;10.230;2023-05-16T10:30:54;5.30;;;4.50;;
45764;SDS011;31474;45.332;10.230;2023-05-16T10:33:20;4.40;;;3.75;;
45764;SDS011;31474;45.332;10.230;2023-05-16T10:35:46;6.50;;;3.90;;
45764;SDS011;31474;45.332;10.230;2023-05-16T10:38:15;5.82;;;4.13;;
45764;SDS011;31474;45.332;10.230;2023-05-16T10:40:42;5.25;;;4.32;;
45764;SDS011;31474;45.332;10.230;2023-05-16T10:43:08;11.85;;;4.80;;
45764;SDS011;31474;45.332;10.230;2023-05-16T10:45:40;5.28;;;4.78;;
45764;SDS011;31474;45.332;10.230;2023-05-16T10:48:06;6.68;;;4.70;;
45764;SDS011;31474;45.332;10.230;2023-05-16T10:50:34;5.65;;;4.45;;
45764;SDS011;31474;45.332;10.230;2023-05-16T10:53:15;6.65;;;4.47;;
45764;SDS011;31474;45.332;10.230;2023-05-16T11:01:23;5.45;;;4.80;;
45764;SDS011;31474;45.332;10.230;2023-05-16T11:06:23;5.75;;;5.05;;
45764;SDS011;31474;45.332;10.230;2023-05-16T11:08:57;5.43;;;4.85;;
45764;SDS011;31474;45.332;10.230;2023-05-16T11:14:03;6.82;;;4.78;;
45764;SDS011;31474;45.332;10.230;2023-05-16T11:16:29;5.32;;;4.55;;
45764;SDS011;31474;45.332;10.230;2023-05-16T11:18:58;9.07;;;5.10;;
45764;SDS011;31474;45.332;10.230;2023-05-16T11:24:36;5.35;;;4.80;;
45764;SDS011;31474;45.332;10.230;2023-05-16T11:27:03;8.77;;;4.82;;
45764;SDS011;31474;45.332;10.230;2023-05-16T11:29:33;6.18;;;5.05;;
45764;SDS011;31474;45.332;10.230;2023-05-16T11:32:02;7.20;;;5.80;;
45764;SDS011;31474;45.332;10.230;2023-05-16T11:34:29;5.82;;;4.40;;
45764;SDS011;31474;45.332;10.230;2023-05-16T11:36:55;6.28;;;5.63;;
45764;SDS011;31474;45.332;10.230;2023-05-16T11:39:21;7.00;;;5.50;;
45764;SDS011;31474;45.332;10.230;2023-05-16T11:41:50;7.32;;;5.93;;
45764;SDS011;31474;45.332;10.230;2023-05-16T11:44:17;7.72;;;5.63;;
45764;SDS011;31474;45.332;10.230;2023-05-16T11:46:42;8.95;;;5.28;;
45764;SDS011;31474;45.332;10.230;2023-05-16T11:49:08;5.82;;;5.32;;
45764;SDS011;31474;45.332;10.230;2023-05-16T11:51:40;7.85;;;5.85;;
45764;SDS011;31474;45.332;10.230;2023-05-16T11:54:10;9.13;;;6.70;;
45764;SDS011;31474;45.332;10.230;2023-05-16T11:56:37;9.90;;;6.25;;
45764;SDS011;31474;45.332;10.230;2023-05-16T11:59:04;7.95;;;6.40;;
45764;SDS011;31474;45.332;10.230;2023-05-16T12:01:33;10.57;;;5.75;;
45764;SDS011;31474;45.332;10.230;2023-05-16T12:04:00;7.95;;;6.20;;
45764;SDS011;31474;45.332;10.230;2023-05-16T12:06:26;6.53;;;5.78;;
45764;SDS011;31474;45.332;10.230;2023-05-16T12:08:53;7.30;;;5.80;;
45764;SDS011;31474;45.332;10.230;2023-05-16T12:11:19;6.80;;;4.85;;
45764;SDS011;31474;45.332;10.230;2023-05-16T12:13:46;7.40;;;4.78;;
45764;SDS011;31474;45.332;10.230;2023-05-16T12:16:12;8.80;;;4.35;;
45764;SDS011;31474;45.332;10.230;2023-05-16T12:18:39;13.02;;;5.82;;
45764;SDS011;31474;45.332;10.230;2023-05-16T12:21:05;7.75;;;5.32;;
45764;SDS011;31474;45.332;10.230;2023-05-16T12:23:31;6.57;;;4.82;;
45764;SDS011;31474;45.332;10.230;2023-05-16T12:25:58;7.70;;;5.35;;
45764;SDS011;31474;45.332;10.230;2023-05-16T12:28:29;5.53;;;4.45;;
45764;SDS011;31474;45.332;10.230;2023-05-16T12:31:01;6.05;;;4.53;;
45764;SDS011;31474;45.332;10.230;2023-05-16T12:33:27;4.68;;;4.07;;
45764;SDS011;31474;45.332;10.230;2023-05-16T12:35:53;7.15;;;4.30;;
45764;SDS011;31474;45.332;10.230;2023-05-16T12:38:19;4.97;;;3.70;;
45764;SDS011;31474;45.332;10.230;2023-05-16T12:40:45;6.47;;;4.05;;
45764;SDS011;31474;45.332;10.230;2023-05-16T12:45:38;6.38;;;4.15;;
45764;SDS011;31474;45.332;10.230;2023-05-16T12:48:09;4.40;;;3.95;;
45764;SDS011;31474;45.332;10.230;2023-05-16T12:50:39;5.32;;;3.67;;
45764;SDS011;31474;45.332;10.230;2023-05-16T12:53:09;5.88;;;3.38;;
45764;SDS011;31474;45.332;10.230;2023-05-16T12:55:36;5.10;;;3.47;;
45764;SDS011;31474;45.332;10.230;2023-05-16T12:58:02;4.88;;;3.58;;
45764;SDS011;31474;45.332;10.230;2023-05-16T13:00:28;3.90;;;3.47;;
45764;SDS011;31474;45.332;10.230;2023-05-16T13:02:55;4.60;;;4.20;;
45764;SDS011;31474;45.332;10.230;2023-05-16T13:05:21;6.53;;;4.30;;
45764;SDS011;31474;45.332;10.230;2023-05-16T13:07:47;72.55;;;23.65;;
45764;SDS011;31474;45.332;10.230;2023-05-16T13:10:15;25.15;;;11.35;;
45764;SDS011;31474;45.332;10.230;2023-05-16T13:12:42;7.28;;;5.90;;
45764;SDS011;31474;45.332;10.230;2023-05-16T13:15:08;6.47;;;4.97;;
45764;SDS011;31474;45.332;10.230;2023-05-16T13:17:36;7.03;;;4.53;;
45764;SDS011;31474;45.332;10.230;2023-05-16T13:20:02;7.72;;;4.68;;
45764;SDS011;31474;45.332;10.230;2023-05-16T13:22:33;6.60;;;4.70;;
45764;SDS011;31474;45.332;10.230;2023-05-16T13:24:59;6.93;;;4.28;;
45764;SDS011;31474;45.332;10.230;2023-05-16T13:27:25;7.93;;;4.68;;
45764;SDS011;31474;45.332;10.230;2023-05-16T13:29:51;4.55;;;3.70;;
45764;SDS011;31474;45.332;10.230;2023-05-16T13:32:16;6.28;;;5.10;;
45764;SDS011;31474;45.332;10.230;2023-05-16T13:34:42;10.98;;;4.97;;
45764;SDS011;31474;45.332;10.230;2023-05-16T13:37:08;6.60;;;4.97;;
45764;SDS011;31474;45.332;10.230;2023-05-16T13:39:34;7.47;;;4.50;;
45764;SDS011;31474;45.332;10.230;2023-05-16T13:42:00;6.13;;;4.10;;
45764;SDS011;31474;45.332;10.230;2023-05-16T13:44:27;5.97;;;4.95;;
45764;SDS011;31474;45.332;10.230;2023-05-16T13:46:53;4.70;;;4.15;;
45764;SDS011;31474;45.332;10.230;2023-05-16T13:49:20;5.13;;;4.63;;
45764;SDS011;31474;45.332;10.230;2023-05-16T13:51:46;7.20;;;4.40;;
45764;SDS011;31474;45.332;10.230;2023-05-16T13:54:12;5.45;;;4.70;;
45764;SDS011;31474;45.332;10.230;2023-05-16T13:56:37;5.03;;;4.53;;
45764;SDS011;31474;45.332;10.230;2023-05-16T13:59:03;5.18;;;4.65;;
45764;SDS011;31474;45.332;10.230;2023-05-16T14:01:29;5.38;;;4.88;;
45764;SDS011;31474;45.332;10.230;2023-05-16T14:03:55;7.65;;;4.93;;
45764;SDS011;31474;45.332;10.230;2023-05-16T14:06:20;8.45;;;4.95;;
45764;SDS011;31474;45.332;10.230;2023-05-16T14:08:46;4.97;;;4.47;;
45764;SDS011;31474;45.332;10.230;2023-05-16T14:11:12;6.40;;;4.32;;
45764;SDS011;31474;45.332;10.230;2023-05-16T14:13:37;6.03;;;4.50;;
45764;SDS011;31474;45.332;10.230;2023-05-16T14:16:04;4.97;;;4.07;;
45764;SDS011;31474;45.332;10.230;2023-05-16T14:18:31;6.95;;;4.25;;
45764;SDS011;31474;45.332;10.230;2023-05-16T14:20:57;4.63;;;4.20;;
45764;SDS011;31474;45.332;10.230;2023-05-16T14:23:23;6.15;;;3.95;;
45764;SDS011;31474;45.332;10.230;2023-05-16T14:25:48;8.32;;;4.55;;
45764;SDS011;31474;45.332;10.230;2023-05-16T14:28:15;4.00;;;3.40;;
45764;SDS011;31474;45.332;10.230;2023-05-16T14:30:40;4.82;;;3.95;;
45764;SDS011;31474;45.332;10.230;2023-05-16T14:33:06;4.32;;;3.88;;
45764;SDS011;31474;45.332;10.230;2023-05-16T14:35:32;6.18;;;4.05;;
45764;SDS011;31474;45.332;10.230;2023-05-16T14:37:58;4.72;;;3.95;;
45764;SDS011;31474;45.332;10.230;2023-05-16T14:40:23;5.65;;;3.97;;
45764;SDS011;31474;45.332;10.230;2023-05-16T14:42:49;7.13;;;3.63;;
45764;SDS011;31474;45.332;10.230;2023-05-16T14:45:14;6.60;;;3.97;;
45764;SDS011;31474;45.332;10.230;2023-05-16T14:47:41;10.40;;;4.38;;
45764;SDS011;31474;45.332;10.230;2023-05-16T14:50:07;4.97;;;4.15;;
45764;SDS011;31474;45.332;10.230;2023-05-16T14:52:33;5.53;;;4.30;;
45764;SDS011;31474;45.332;10.230;2023-05-16T14:54:59;10.45;;;4.05;;
45764;SDS011;31474;45.332;10.230;2023-05-16T14:57:25;4.20;;;3.80;;
45764;SDS011;31474;45.332;10.230;2023-05-16T14:59:51;6.03;;;4.28;;